createdAt,value
2019-01-29T00:01:54.568Z,140.87
2019-01-29T00:04:21.489Z,130.73
2019-01-29T00:06:48.449Z,130.93
2019-01-29T00:09:15.342Z,133.00
2019-01-29T00:11:42.243Z,133.27
2019-01-29T00:14:08.917Z,125.40
2019-01-29T00:16:36.814Z,126.20
2019-01-29T00:19:03.968Z,133.27
2019-01-29T00:21:30.593Z,124.10
2019-01-29T00:23:57.472Z,129.93
2019-01-29T00:26:24.426Z,122.97
2019-01-29T00:28:51.324Z,123.80
2019-01-29T00:31:18.005Z,126.57
2019-01-29T00:33:44.894Z,131.00
2019-01-29T00:36:12.588Z,129.80
2019-01-29T00:38:50.312Z,135.90
2019-01-29T00:41:19.476Z,116.80
2019-01-29T00:43:46.050Z,129.67
2019-01-29T00:46:12.708Z,111.60
2019-01-29T00:48:39.400Z,122.73
2019-01-29T00:51:08.586Z,130.77
2019-01-29T00:53:35.159Z,128.80
2019-01-29T00:56:01.817Z,130.27
2019-01-29T00:58:28.611Z,134.47
2019-01-29T01:00:55.256Z,135.83
2019-01-29T01:03:21.819Z,129.47
2019-01-29T01:05:48.409Z,124.17
2019-01-29T01:08:14.956Z,131.37
2019-01-29T01:10:41.494Z,135.20
2019-01-29T01:13:08.164Z,114.60
2019-01-29T01:15:34.836Z,128.00
2019-01-29T01:18:01.404Z,119.57
2019-01-29T01:20:27.960Z,123.27
2019-01-29T01:22:54.532Z,123.60
2019-01-29T01:25:21.152Z,131.13
2019-01-29T01:27:48.861Z,122.03
2019-01-29T01:30:17.634Z,124.10
2019-01-29T01:32:44.436Z,120.93
2019-01-29T01:35:10.979Z,119.57
2019-01-29T01:37:37.603Z,129.83
2019-01-29T01:40:09.989Z,123.80
2019-01-29T01:42:36.561Z,123.00
2019-01-29T01:45:08.170Z,126.87
2019-01-29T01:47:34.769Z,129.57
2019-01-29T01:50:01.433Z,131.57
2019-01-29T01:52:28.169Z,139.17
2019-01-29T01:54:54.732Z,135.30
2019-01-29T01:57:21.308Z,127.97
2019-01-29T01:59:47.871Z,128.97
2019-01-29T02:02:14.468Z,130.27
2019-01-29T02:04:41.149Z,130.37
2019-01-29T02:07:07.762Z,122.40
2019-01-29T02:09:34.584Z,141.10
2019-01-29T02:12:01.163Z,121.73
2019-01-29T02:14:27.725Z,142.07
2019-01-29T02:16:54.450Z,123.43
2019-01-29T02:19:21.000Z,133.97
2019-01-29T02:21:47.644Z,131.60
2019-01-29T02:24:14.313Z,139.57
2019-01-29T02:26:40.934Z,130.03
2019-01-29T02:29:07.612Z,122.87
2019-01-29T02:31:34.576Z,133.13
2019-01-29T02:34:01.151Z,124.30
2019-01-29T02:36:27.803Z,138.10
2019-01-29T02:38:54.396Z,132.80
2019-01-29T02:41:21.010Z,130.17
2019-01-29T02:43:47.588Z,132.13
2019-01-29T02:46:14.549Z,138.93
2019-01-29T02:48:41.233Z,122.20
2019-01-29T02:51:07.843Z,132.20
2019-01-29T02:53:34.997Z,129.53
2019-01-29T02:56:02.039Z,125.97
2019-01-29T02:58:28.712Z,134.40
2019-01-29T03:00:55.300Z,113.53
2019-01-29T03:03:21.895Z,110.43
2019-01-29T03:05:48.455Z,106.10
2019-01-29T03:08:15.408Z,92.23
2019-01-29T03:10:42.326Z,95.10
2019-01-29T03:13:08.991Z,97.80
2019-01-29T03:15:36.708Z,93.40
2019-01-29T03:18:03.245Z,106.40
2019-01-29T03:20:30.228Z,103.10
2019-01-29T03:22:57.219Z,104.37
2019-01-29T03:25:24.210Z,96.30
2019-01-29T03:27:51.341Z,99.43
2019-01-29T03:30:20.608Z,92.73
2019-01-29T03:32:47.427Z,96.67
2019-01-29T03:35:14.450Z,92.60
2019-01-29T03:37:41.064Z,83.17
2019-01-29T03:40:12.453Z,88.57
2019-01-29T03:42:40.900Z,87.73
2019-01-29T03:45:12.747Z,84.33
2019-01-29T03:47:39.452Z,84.03
2019-01-29T03:50:10.154Z,81.43
2019-01-29T03:52:36.836Z,86.13
2019-01-29T03:55:05.995Z,77.17
2019-01-29T03:57:32.614Z,77.73
2019-01-29T03:59:59.502Z,85.53
2019-01-29T04:02:26.130Z,82.50
2019-01-29T04:04:52.678Z,85.87
2019-01-29T04:07:19.353Z,81.50
2019-01-29T04:09:46.087Z,76.67
2019-01-29T04:12:12.758Z,81.53
2019-01-29T04:14:39.320Z,77.27
2019-01-29T04:17:06.030Z,75.83
2019-01-29T04:19:32.738Z,76.37
2019-01-29T04:21:59.318Z,79.17
2019-01-29T04:24:25.967Z,82.83
2019-01-29T04:26:52.574Z,74.40
2019-01-29T04:29:19.175Z,75.90
2019-01-29T04:31:46.127Z,73.40
2019-01-29T04:34:12.703Z,75.70
2019-01-29T04:36:39.370Z,77.03
2019-01-29T04:39:06.571Z,76.73
2019-01-29T04:41:33.257Z,79.63
2019-01-29T04:43:59.872Z,78.77
2019-01-29T04:46:26.513Z,81.10
2019-01-29T04:48:53.068Z,79.77
2019-01-29T04:51:19.720Z,84.40
2019-01-29T04:53:46.403Z,82.40
2019-01-29T04:56:13.017Z,80.73
2019-01-29T04:58:39.574Z,76.73
2019-01-29T05:01:06.253Z,85.27
2019-01-29T05:03:32.912Z,81.60
2019-01-29T05:05:59.613Z,78.43
2019-01-29T05:08:26.248Z,82.83
2019-01-29T05:10:52.848Z,80.93
2019-01-29T05:13:19.414Z,82.10
2019-01-29T05:15:45.973Z,84.57
2019-01-29T05:18:12.609Z,83.30
2019-01-29T05:20:39.185Z,88.10
2019-01-29T05:23:05.817Z,83.37
2019-01-29T05:25:32.500Z,82.43
2019-01-29T05:27:59.522Z,77.47
2019-01-29T05:30:26.227Z,75.20
2019-01-29T05:32:52.851Z,74.60
2019-01-29T05:35:19.521Z,76.50
2019-01-29T05:37:46.272Z,77.70
2019-01-29T05:40:16.445Z,79.83
2019-01-29T05:42:43.184Z,81.60
2019-01-29T05:45:14.552Z,83.50
2019-01-29T05:47:41.125Z,86.63
2019-01-29T05:50:11.950Z,80.77
2019-01-29T05:52:38.515Z,87.80
2019-01-29T05:55:07.936Z,83.03
2019-01-29T05:57:34.688Z,86.00
2019-01-29T06:00:01.359Z,93.07
2019-01-29T06:02:27.997Z,84.93
2019-01-29T06:04:54.639Z,84.60
2019-01-29T06:07:21.331Z,95.63
2019-01-29T06:09:48.033Z,91.93
2019-01-29T06:12:14.598Z,84.57
2019-01-29T06:14:41.302Z,85.60
2019-01-29T06:17:07.862Z,87.57
2019-01-29T06:19:34.557Z,92.27
2019-01-29T06:22:01.167Z,91.37
2019-01-29T06:24:27.850Z,90.83
2019-01-29T06:26:54.431Z,89.00
2019-01-29T06:29:21.074Z,85.13
2019-01-29T06:31:47.657Z,86.03
2019-01-29T06:34:14.333Z,88.30
2019-01-29T06:36:40.905Z,92.83
2019-01-29T06:39:07.584Z,84.00
2019-01-29T06:41:34.529Z,90.90
2019-01-29T06:44:01.083Z,80.77
2019-01-29T06:46:27.621Z,84.07
2019-01-29T06:48:54.198Z,87.33
2019-01-29T06:51:21.103Z,87.63
2019-01-29T06:53:47.762Z,82.83
2019-01-29T06:56:14.378Z,86.60
2019-01-29T06:58:41.071Z,90.00
2019-01-29T07:01:07.611Z,88.30
2019-01-29T07:03:34.373Z,96.40
2019-01-29T07:06:00.952Z,93.20
2019-01-29T07:08:27.963Z,84.13
2019-01-29T07:10:54.563Z,79.83
2019-01-29T07:13:21.363Z,89.33
2019-01-29T07:15:49.859Z,87.70
2019-01-29T07:18:18.431Z,97.63
2019-01-29T07:20:44.991Z,91.43
2019-01-29T07:23:12.172Z,80.10
2019-01-29T07:25:38.802Z,92.10
2019-01-29T07:28:05.409Z,88.57
2019-01-29T07:30:32.060Z,88.80
2019-01-29T07:32:58.664Z,85.67
2019-01-29T07:35:25.243Z,90.93
2019-01-29T07:37:51.834Z,93.20
2019-01-29T07:40:18.436Z,90.93
2019-01-29T07:42:45.067Z,91.77
2019-01-29T07:45:12.860Z,93.33
2019-01-29T07:47:39.455Z,83.43
2019-01-29T07:50:09.068Z,94.57
2019-01-29T07:52:35.779Z,85.10
2019-01-29T07:55:06.200Z,87.13
2019-01-29T07:57:32.887Z,89.93
2019-01-29T07:59:59.545Z,87.50
2019-01-29T08:02:26.151Z,91.80
2019-01-29T08:04:53.546Z,86.63
2019-01-29T08:07:20.217Z,87.70
2019-01-29T08:09:46.797Z,83.87
2019-01-29T08:12:13.415Z,86.60
2019-01-29T08:14:40.096Z,84.97
2019-01-29T08:17:06.854Z,91.50
2019-01-29T08:19:33.763Z,87.20
2019-01-29T08:22:00.419Z,80.50
2019-01-29T08:24:27.818Z,79.37
2019-01-29T08:26:54.545Z,72.23
2019-01-29T08:29:21.118Z,73.40
2019-01-29T08:31:47.766Z,77.00
2019-01-29T08:34:14.373Z,74.73
2019-01-29T08:36:41.033Z,72.40
2019-01-29T08:39:11.107Z,81.80
2019-01-29T08:41:37.956Z,106.27
2019-01-29T08:44:05.053Z,76.03
2019-01-29T08:46:31.623Z,91.17
2019-01-29T08:48:58.248Z,82.13
2019-01-29T08:51:24.844Z,83.23
2019-01-29T08:53:52.707Z,79.43
2019-01-29T08:56:19.320Z,84.37
2019-01-29T08:58:45.903Z,75.40
2019-01-29T09:01:16.020Z,79.37
2019-01-29T09:03:46.356Z,82.00
2019-01-29T09:06:13.149Z,75.57
2019-01-29T09:08:39.751Z,69.40
2019-01-29T09:11:06.384Z,79.40
2019-01-29T09:13:32.956Z,73.33
2019-01-29T09:15:59.547Z,76.13
2019-01-29T09:18:26.126Z,67.13
2019-01-29T09:20:52.771Z,71.93
2019-01-29T09:23:19.343Z,81.97
2019-01-29T09:25:45.978Z,75.33
2019-01-29T09:28:18.376Z,69.70
2019-01-29T09:30:41.073Z,79.53
2019-01-29T09:33:07.652Z,77.33
2019-01-29T09:35:34.338Z,77.47
2019-01-29T09:38:00.910Z,72.40
2019-01-29T09:40:27.491Z,71.73
2019-01-29T09:42:54.064Z,85.60
2019-01-29T09:45:20.733Z,78.30
2019-01-29T09:47:48.588Z,80.67
2019-01-29T09:50:21.002Z,71.23
2019-01-29T09:52:47.661Z,71.70
2019-01-29T09:55:17.471Z,75.47
2019-01-29T09:57:44.219Z,72.40
2019-01-29T10:00:16.399Z,72.73
2019-01-29T10:02:42.988Z,71.43
2019-01-29T10:05:09.684Z,73.00
2019-01-29T10:07:37.357Z,68.20
2019-01-29T10:10:09.360Z,71.10
2019-01-29T10:12:35.965Z,70.73
2019-01-29T10:15:09.460Z,66.80
2019-01-29T10:17:36.067Z,64.30
2019-01-29T10:20:05.468Z,64.33
2019-01-29T10:22:32.393Z,56.97
2019-01-29T10:24:58.978Z,58.83
2019-01-29T10:27:25.661Z,62.60
2019-01-29T10:29:52.227Z,51.40
2019-01-29T10:32:18.815Z,57.30
2019-01-29T10:34:45.390Z,52.20
2019-01-29T10:37:12.195Z,47.20
2019-01-29T10:39:38.790Z,55.17
2019-01-29T10:42:06.024Z,49.07
2019-01-29T10:44:32.945Z,47.83
2019-01-29T10:46:59.523Z,67.30
2019-01-29T10:49:26.096Z,45.37
2019-01-29T10:51:52.672Z,41.97
2019-01-29T10:54:19.225Z,42.80
2019-01-29T10:56:45.796Z,49.00
2019-01-29T10:59:12.493Z,46.67
2019-01-29T11:01:39.066Z,40.33
2019-01-29T11:04:06.055Z,47.47
2019-01-29T11:07:29.567Z,43.73
2019-01-29T11:09:56.215Z,38.70
2019-01-29T11:12:23.154Z,45.73
2019-01-29T11:14:49.803Z,40.40
2019-01-29T11:17:16.447Z,39.03
2019-01-29T11:19:43.194Z,41.33
2019-01-29T11:22:10.019Z,43.43
2019-01-29T11:24:36.570Z,43.30
2019-01-29T11:27:03.258Z,41.17
2019-01-29T11:29:29.829Z,43.90
2019-01-29T11:31:56.361Z,46.33
2019-01-29T11:34:22.962Z,41.53
2019-01-29T11:36:49.510Z,40.80
2019-01-29T11:39:16.095Z,37.37
2019-01-29T11:41:42.718Z,32.73
2019-01-29T11:44:09.294Z,29.43
2019-01-29T11:46:35.915Z,33.63
2019-01-29T11:49:02.764Z,34.37
2019-01-29T11:51:29.897Z,31.90
2019-01-29T11:53:56.474Z,30.53
2019-01-29T11:56:23.058Z,29.07
2019-01-29T11:58:49.703Z,30.27
2019-01-29T12:01:16.370Z,28.67
2019-01-29T12:03:42.924Z,31.90
2019-01-29T12:06:09.511Z,36.17
2019-01-29T12:08:36.154Z,43.97
2019-01-29T12:11:02.704Z,29.10
2019-01-29T12:13:29.489Z,25.93
2019-01-29T12:15:56.146Z,23.97
2019-01-29T12:18:22.741Z,22.50
2019-01-29T12:20:49.310Z,27.80
2019-01-29T12:23:16.786Z,28.33
2019-01-29T12:25:43.387Z,29.50
2019-01-29T12:28:09.934Z,30.83
2019-01-29T12:30:36.695Z,29.73
2019-01-29T12:33:06.682Z,26.83
2019-01-29T12:35:33.419Z,31.90
2019-01-29T12:38:00.039Z,28.03
2019-01-29T12:40:26.650Z,28.53
2019-01-29T12:42:53.209Z,22.90
2019-01-29T12:45:21.032Z,23.57
2019-01-29T12:47:47.730Z,27.37
2019-01-29T12:50:20.061Z,28.17
2019-01-29T12:52:48.985Z,27.10
2019-01-29T12:55:15.572Z,27.17
2019-01-29T12:57:42.181Z,23.90
2019-01-29T13:00:14.630Z,25.33
2019-01-29T13:02:41.307Z,23.53
2019-01-29T13:05:11.411Z,23.13
2019-01-29T13:07:37.988Z,21.47
2019-01-29T13:10:10.377Z,21.27
2019-01-29T13:12:36.987Z,19.93
2019-01-29T13:15:09.457Z,23.73
2019-01-29T13:17:36.310Z,19.30
2019-01-29T13:20:08.267Z,23.87
2019-01-29T13:22:34.976Z,23.03
2019-01-29T13:25:01.533Z,24.77
2019-01-29T13:27:29.452Z,22.90
2019-01-29T13:29:56.009Z,27.43
2019-01-29T13:32:23.014Z,26.50
2019-01-29T13:34:49.843Z,25.93
2019-01-29T13:37:16.399Z,26.97
2019-01-29T13:39:43.174Z,24.00
2019-01-29T13:42:09.760Z,25.60
2019-01-29T13:44:40.497Z,23.70
2019-01-29T13:47:10.872Z,23.10
2019-01-29T13:50:37.751Z,30.10
2019-01-29T13:53:05.384Z,24.00
2019-01-29T13:55:32.193Z,29.77
2019-01-29T13:57:58.801Z,34.73
2019-01-29T14:00:30.607Z,23.50
2019-01-29T14:02:57.618Z,21.47
2019-01-29T14:05:24.184Z,25.60
2019-01-29T14:07:50.908Z,21.03
2019-01-29T14:10:17.577Z,26.87
2019-01-29T14:12:44.262Z,26.80
2019-01-29T14:15:18.051Z,23.27
2019-01-29T14:17:47.170Z,22.53
2019-01-29T14:20:17.046Z,26.73
2019-01-29T14:22:44.642Z,23.37
2019-01-29T14:25:11.191Z,25.60
2019-01-29T14:27:37.800Z,26.17
2019-01-29T14:30:10.261Z,36.03
2019-01-29T14:32:36.864Z,28.80
2019-01-29T14:36:00.146Z,44.70
2019-01-29T14:38:26.840Z,33.23
2019-01-29T14:40:53.493Z,67.53
2019-01-29T14:43:26.311Z,26.73
2019-01-29T14:45:53.151Z,26.53
2019-01-29T14:48:19.715Z,27.83
2019-01-29T14:50:46.305Z,40.53
2019-01-29T14:53:12.960Z,24.20
2019-01-29T14:55:39.575Z,20.97
2019-01-29T14:58:06.172Z,34.43
2019-01-29T15:00:37.520Z,20.33
2019-01-29T15:03:04.081Z,19.70
2019-01-29T15:05:30.906Z,24.47
2019-01-29T15:07:57.636Z,27.40
2019-01-29T15:10:27.653Z,25.83
2019-01-29T15:12:56.498Z,26.20
2019-01-29T15:15:27.979Z,28.83
2019-01-29T15:17:56.579Z,31.77
2019-01-29T15:20:23.207Z,22.80
2019-01-29T15:22:50.194Z,20.63
2019-01-29T15:25:17.880Z,24.10
2019-01-29T15:27:44.698Z,20.73
2019-01-29T15:30:15.093Z,25.23
2019-01-29T15:32:42.078Z,23.43
2019-01-29T15:35:08.686Z,21.27
2019-01-29T15:37:35.303Z,14.83
2019-01-29T15:40:05.056Z,17.13
2019-01-29T15:42:31.985Z,18.20
2019-01-29T15:44:59.091Z,27.40
2019-01-29T15:47:26.201Z,19.20
2019-01-29T15:49:52.890Z,16.33
2019-01-29T15:52:20.206Z,18.53
2019-01-29T15:54:46.866Z,22.97
2019-01-29T15:57:14.472Z,23.07
2019-01-29T15:59:43.056Z,33.43
2019-01-29T16:02:09.711Z,26.03
2019-01-29T16:04:36.324Z,35.70
2019-01-29T16:07:02.930Z,17.80
2019-01-29T16:09:29.580Z,15.63
2019-01-29T16:11:56.648Z,22.90
2019-01-29T16:14:23.693Z,36.83
2019-01-29T16:16:50.620Z,30.07
2019-01-29T16:19:17.307Z,26.27
2019-01-29T16:21:44.629Z,21.57
2019-01-29T16:24:11.319Z,26.43
2019-01-29T16:26:38.122Z,53.97
2019-01-29T16:29:04.686Z,37.77
2019-01-29T16:31:31.450Z,21.43
2019-01-29T16:33:58.372Z,23.37
2019-01-29T16:36:25.149Z,20.23
2019-01-29T16:38:51.707Z,27.23
2019-01-29T16:41:18.333Z,22.70
2019-01-29T16:43:45.259Z,26.23
2019-01-29T16:46:12.318Z,23.60
2019-01-29T16:48:38.987Z,21.17
2019-01-29T16:51:05.817Z,26.27
2019-01-29T16:53:32.938Z,37.93
2019-01-29T16:55:59.848Z,45.00
2019-01-29T16:58:26.855Z,42.00
2019-01-29T17:00:53.428Z,39.43
2019-01-29T17:03:20.529Z,59.10
2019-01-29T17:05:47.519Z,28.37
2019-01-29T17:08:15.020Z,46.03
2019-01-29T17:10:41.866Z,28.10
2019-01-29T17:13:08.771Z,19.03
2019-01-29T17:15:37.535Z,25.73
2019-01-29T17:18:06.789Z,96.23
2019-01-29T17:20:39.432Z,59.60
2019-01-29T17:23:06.980Z,35.33
2019-01-29T17:25:33.585Z,89.77
2019-01-29T17:28:00.192Z,28.63
2019-01-29T17:30:32.131Z,40.53
2019-01-29T17:32:59.015Z,86.80
2019-01-29T17:35:25.571Z,28.43
2019-01-29T17:37:52.397Z,38.47
2019-01-29T17:40:21.221Z,42.23
2019-01-29T17:42:47.839Z,44.53
2019-01-29T17:45:20.298Z,40.97
2019-01-29T17:47:46.868Z,72.60
2019-01-29T17:50:18.578Z,49.93
2019-01-29T17:52:45.333Z,37.27
2019-01-29T17:55:14.229Z,40.43
2019-01-29T17:57:50.342Z,36.37
2019-01-29T18:00:15.127Z,59.20
2019-01-29T18:02:41.752Z,98.37
2019-01-29T18:05:08.368Z,72.83
2019-01-29T18:07:34.989Z,45.97
2019-01-29T18:10:01.549Z,48.20
2019-01-29T18:12:28.259Z,59.43
2019-01-29T18:14:54.880Z,67.70
2019-01-29T18:17:21.545Z,48.47
2019-01-29T18:19:48.250Z,28.90
2019-01-29T18:22:15.061Z,26.73
2019-01-29T18:24:41.844Z,42.93
2019-01-29T18:27:08.756Z,28.20
2019-01-29T18:29:35.458Z,31.83
2019-01-29T18:32:02.013Z,35.03
2019-01-29T18:34:28.740Z,38.03
2019-01-29T18:36:55.414Z,40.03
2019-01-29T18:39:22.133Z,33.43
2019-01-29T18:41:48.717Z,41.67
2019-01-29T18:44:19.329Z,33.20
2019-01-29T18:46:46.712Z,27.93
2019-01-29T18:49:13.595Z,33.00
2019-01-29T18:51:40.682Z,41.13
2019-01-29T18:54:07.253Z,42.37
2019-01-29T18:56:33.817Z,57.07
2019-01-29T18:59:00.524Z,59.97
2019-01-29T19:01:27.147Z,62.50
2019-01-29T19:03:53.742Z,63.23
2019-01-29T19:06:20.474Z,43.50
2019-01-29T19:08:47.215Z,41.33
2019-01-29T19:11:13.878Z,54.37
2019-01-29T19:13:40.524Z,80.57
2019-01-29T19:16:07.140Z,141.17
2019-01-29T19:18:34.116Z,80.07
2019-01-29T19:21:01.264Z,83.37
2019-01-29T19:23:28.699Z,243.17
2019-01-29T19:25:55.718Z,95.57
2019-01-29T19:28:22.998Z,96.50
2019-01-29T19:30:49.742Z,201.67
2019-01-29T19:33:16.583Z,184.37
2019-01-29T19:35:43.501Z,76.83
2019-01-29T19:38:10.376Z,102.30
2019-01-29T19:40:40.414Z,53.33
2019-01-29T19:43:07.424Z,41.33
2019-01-29T19:45:34.483Z,28.60
2019-01-29T19:48:03.910Z,30.60
2019-01-29T19:50:31.696Z,68.13
2019-01-29T19:52:59.371Z,62.60
2019-01-29T19:55:26.471Z,81.73
2019-01-29T19:57:53.305Z,70.67
2019-01-29T20:00:25.140Z,55.90
2019-01-29T20:02:52.209Z,44.97
2019-01-29T20:05:19.028Z,75.97
2019-01-29T20:07:45.626Z,81.23
2019-01-29T20:10:15.749Z,65.13
2019-01-29T20:12:43.375Z,66.23
2019-01-29T20:15:15.436Z,48.00
2019-01-29T20:17:42.343Z,42.17
2019-01-29T20:20:18.038Z,44.53
2019-01-29T20:22:44.741Z,56.20
2019-01-29T20:25:17.370Z,51.40
2019-01-29T20:27:44.232Z,55.83
2019-01-29T20:30:18.285Z,60.77
2019-01-29T20:32:53.255Z,50.57
2019-01-29T20:35:15.154Z,54.73
2019-01-29T20:37:41.748Z,44.63
2019-01-29T20:40:14.398Z,45.50
2019-01-29T20:42:42.627Z,46.30
2019-01-29T20:45:11.589Z,47.47
2019-01-29T20:47:39.106Z,46.00
2019-01-29T20:50:11.674Z,47.43
2019-01-29T20:52:39.395Z,55.27
2019-01-29T20:55:07.183Z,43.93
2019-01-29T20:57:33.905Z,42.17
2019-01-29T21:00:01.065Z,40.37
2019-01-29T21:02:27.621Z,43.77
2019-01-29T21:04:55.053Z,43.13
2019-01-29T21:07:21.609Z,49.83
2019-01-29T21:09:48.247Z,45.70
2019-01-29T21:12:14.955Z,39.10
2019-01-29T21:14:41.664Z,43.07
2019-01-29T21:17:08.318Z,41.60
2019-01-29T21:19:35.088Z,48.53
2019-01-29T21:22:01.699Z,47.30
2019-01-29T21:24:28.434Z,47.03
2019-01-29T21:26:55.014Z,49.10
2019-01-29T21:29:21.675Z,43.73
2019-01-29T21:31:48.649Z,47.00
2019-01-29T21:34:15.413Z,48.20
2019-01-29T21:36:41.998Z,47.23
2019-01-29T21:39:08.674Z,50.97
2019-01-29T21:41:35.288Z,52.00
2019-01-29T21:44:02.928Z,49.43
2019-01-29T21:46:29.814Z,44.83
2019-01-29T21:48:56.526Z,51.73
2019-01-29T21:51:23.171Z,39.57
2019-01-29T21:53:49.843Z,41.40
2019-01-29T21:56:16.510Z,43.67
2019-01-29T21:58:43.061Z,44.87
2019-01-29T22:01:09.826Z,46.67
2019-01-29T22:03:36.520Z,41.37
2019-01-29T22:06:03.583Z,38.73
2019-01-29T22:08:30.435Z,35.53
2019-01-29T22:10:57.040Z,42.40
2019-01-29T22:13:23.678Z,44.10
2019-01-29T22:15:50.328Z,39.83
2019-01-29T22:18:16.951Z,50.80
2019-01-29T22:20:43.575Z,40.43
2019-01-29T22:23:10.153Z,41.17
2019-01-29T22:25:36.756Z,40.30
2019-01-29T22:28:04.697Z,67.37
2019-01-29T22:30:35.968Z,50.20
2019-01-29T22:33:03.515Z,38.73
2019-01-29T22:35:30.095Z,74.30
2019-01-29T22:37:56.811Z,33.03
2019-01-29T22:40:27.124Z,39.83
2019-01-29T22:42:54.462Z,38.97
2019-01-29T22:45:21.185Z,66.60
2019-01-29T22:47:47.806Z,52.67
2019-01-29T22:50:22.802Z,69.83
2019-01-29T22:52:49.472Z,38.67
2019-01-29T22:55:16.270Z,36.93
2019-01-29T22:57:42.979Z,39.20
2019-01-29T23:00:17.346Z,42.77
2019-01-29T23:02:44.172Z,33.97
2019-01-29T23:05:10.836Z,36.77
2019-01-29T23:07:37.842Z,35.67
2019-01-29T23:10:10.200Z,36.47
2019-01-29T23:12:36.822Z,34.27
2019-01-29T23:15:08.923Z,40.67
2019-01-29T23:17:35.811Z,44.60
2019-01-29T23:20:07.098Z,43.17
2019-01-29T23:22:33.670Z,53.43
2019-01-29T23:25:00.314Z,66.23
2019-01-29T23:27:26.883Z,65.13
2019-01-29T23:29:53.479Z,72.17
2019-01-29T23:32:20.249Z,75.77
2019-01-29T23:34:46.968Z,66.33
2019-01-29T23:37:13.721Z,78.63
2019-01-29T23:39:40.382Z,70.80
2019-01-29T23:42:07.006Z,77.73
2019-01-29T23:44:33.686Z,80.07
2019-01-29T23:47:00.717Z,68.87
2019-01-29T23:49:27.405Z,54.73
2019-01-29T23:51:54.261Z,78.83
2019-01-29T23:54:21.269Z,63.83
2019-01-29T23:56:48.199Z,68.97
2019-01-29T23:59:15.420Z,64.70
